sensor_id;sensor_type;location;lat;lon;timestamp;P1;P2;P0
36453;PMS5003;22478;51.740;-1.314;2023-07-31T00:01:57;44;43;
36453;PMS5003;22478;51.740;-1.314;2023-07-31T00:04:24;28;28;
36453;PMS5003;22478;51.740;-1.314;2023-07-31T00:06:52;40;40;
36453;PMS5003;22478;51.740;-1.314;2023-07-31T00:09:19;27;27;
36453;PMS5003;22478;51.740;-1.314;2023-07-31T00:11:46;38;38;
36453;PMS5003;22478;51.740;-1.314;2023-07-31T00:14:14;22;22;
36453;PMS5003;22478;51.740;-1.314;2023-07-31T00:16:40;13;12;
36453;PMS5003;22478;51.740;-1.314;2023-07-31T00:19:08;18;16;
36453;PMS5003;22478;51.740;-1.314;2023-07-31T00:21:35;13;13;
36453;PMS5003;22478;51.740;-1.314;2023-07-31T00:24:03;24;22;
36453;PMS5003;22478;51.740;-1.314;2023-07-31T00:26:30;16;16;
36453;PMS5003;22478;51.740;-1.314;2023-07-31T00:28:57;22;21;
36453;PMS5003;22478;51.740;-1.314;2023-07-31T00:31:24;24;24;
36453;PMS5003;22478;51.740;-1.314;2023-07-31T00:33:51;27;27;
36453;PMS5003;22478;51.740;-1.314;2023-07-31T00:36:18;22;22;
36453;PMS5003;22478;51.740;-1.314;2023-07-31T00:38:46;23;23;
36453;PMS5003;22478;51.740;-1.314;2023-07-31T00:41:12;15;15;
36453;PMS5003;22478;51.740;-1.314;2023-07-31T00:43:40;11;10;
36453;PMS5003;22478;51.740;-1.314;2023-07-31T00:46:07;15;14;
36453;PMS5003;22478;51.740;-1.314;2023-07-31T00:48:35;23;23;
36453;PMS5003;22478;51.740;-1.314;2023-07-31T00:51:03;15;15;
36453;PMS5003;22478;51.740;-1.314;2023-07-31T00:53:30;10;9;
36453;PMS5003;22478;51.740;-1.314;2023-07-31T00:55:58;14;14;
36453;PMS5003;22478;51.740;-1.314;2023-07-31T00:58:25;21;21;
36453;PMS5003;22478;51.740;-1.314;2023-07-31T01:00:53;21;20;
36453;PMS5003;22478;51.740;-1.314;2023-07-31T01:03:20;24;24;
36453;PMS5003;22478;51.740;-1.314;2023-07-31T01:05:50;23;23;
36453;PMS5003;22478;51.740;-1.314;2023-07-31T01:08:29;18;18;
36453;PMS5003;22478;51.740;-1.314;2023-07-31T01:11:06;18;18;
36453;PMS5003;22478;51.740;-1.314;2023-07-31T01:13:40;29;29;
36453;PMS5003;22478;51.740;-1.314;2023-07-31T01:16:07;21;20;
36453;PMS5003;22478;51.740;-1.314;2023-07-31T01:18:34;21;21;
36453;PMS5003;22478;51.740;-1.314;2023-07-31T01:21:03;15;15;
36453;PMS5003;22478;51.740;-1.314;2023-07-31T01:23:51;9;9;
36453;PMS5003;22478;51.740;-1.314;2023-07-31T01:26:36;14;14;
36453;PMS5003;22478;51.740;-1.314;2023-07-31T01:29:07;5;5;
36453;PMS5003;22478;51.740;-1.314;2023-07-31T01:31:37;13;13;
36453;PMS5003;22478;51.740;-1.314;2023-07-31T01:34:08;13;13;
36453;PMS5003;22478;51.740;-1.314;2023-07-31T01:36:37;11;11;
36453;PMS5003;22478;51.740;-1.314;2023-07-31T01:39:05;6;6;
36453;PMS5003;22478;51.740;-1.314;2023-07-31T01:41:32;7;7;
36453;PMS5003;22478;51.740;-1.314;2023-07-31T01:44:04;21;21;
36453;PMS5003;22478;51.740;-1.314;2023-07-31T01:46:32;24;24;
36453;PMS5003;22478;51.740;-1.314;2023-07-31T01:48:59;18;16;
36453;PMS5003;22478;51.740;-1.314;2023-07-31T01:51:27;28;28;
36453;PMS5003;22478;51.740;-1.314;2023-07-31T01:53:54;17;17;
36453;PMS5003;22478;51.740;-1.314;2023-07-31T01:56:21;17;17;
36453;PMS5003;22478;51.740;-1.314;2023-07-31T01:58:48;19;19;
36453;PMS5003;22478;51.740;-1.314;2023-07-31T02:01:15;8;8;
36453;PMS5003;22478;51.740;-1.314;2023-07-31T02:03:42;12;12;
36453;PMS5003;22478;51.740;-1.314;2023-07-31T02:06:09;13;13;
36453;PMS5003;22478;51.740;-1.314;2023-07-31T02:08:37;15;15;
36453;PMS5003;22478;51.740;-1.314;2023-07-31T02:11:04;11;11;
36453;PMS5003;22478;51.740;-1.314;2023-07-31T02:13:31;13;11;
36453;PMS5003;22478;51.740;-1.314;2023-07-31T02:15:59;9;9;
36453;PMS5003;22478;51.740;-1.314;2023-07-31T02:18:26;5;5;
36453;PMS5003;22478;51.740;-1.314;2023-07-31T02:20:53;29;29;
36453;PMS5003;22478;51.740;-1.314;2023-07-31T02:23:20;5;5;
36453;PMS5003;22478;51.740;-1.314;2023-07-31T02:25:48;23;23;
36453;PMS5003;22478;51.740;-1.314;2023-07-31T02:28:15;21;20;
36453;PMS5003;22478;51.740;-1.314;2023-07-31T02:30:43;16;14;
36453;PMS5003;22478;51.740;-1.314;2023-07-31T02:33:11;9;9;
36453;PMS5003;22478;51.740;-1.314;2023-07-31T02:35:38;8;8;
36453;PMS5003;22478;51.740;-1.314;2023-07-31T02:38:06;12;12;
36453;PMS5003;22478;51.740;-1.314;2023-07-31T02:40:33;9;9;
36453;PMS5003;22478;51.740;-1.314;2023-07-31T02:43:01;10;10;
36453;PMS5003;22478;51.740;-1.314;2023-07-31T02:45:28;14;14;
36453;PMS5003;22478;51.740;-1.314;2023-07-31T02:47:55;10;10;
36453;PMS5003;22478;51.740;-1.314;2023-07-31T02:50:23;11;11;
36453;PMS5003;22478;51.740;-1.314;2023-07-31T02:52:50;7;7;
36453;PMS5003;22478;51.740;-1.314;2023-07-31T02:55:17;8;6;
36453;PMS5003;22478;51.740;-1.314;2023-07-31T02:57:44;8;8;
36453;PMS5003;22478;51.740;-1.314;2023-07-31T03:00:12;11;8;
36453;PMS5003;22478;51.740;-1.314;2023-07-31T03:02:39;7;7;
36453;PMS5003;22478;51.740;-1.314;2023-07-31T03:05:07;6;6;
36453;PMS5003;22478;51.740;-1.314;2023-07-31T03:07:34;12;12;
36453;PMS5003;22478;51.740;-1.314;2023-07-31T03:10:02;21;21;
36453;PMS5003;22478;51.740;-1.314;2023-07-31T03:12:30;17;17;
36453;PMS5003;22478;51.740;-1.314;2023-07-31T03:14:57;22;22;
36453;PMS5003;22478;51.740;-1.314;2023-07-31T03:17:24;9;9;
36453;PMS5003;22478;51.740;-1.314;2023-07-31T03:19:51;18;18;
36453;PMS5003;22478;51.740;-1.314;2023-07-31T03:22:19;20;20;
36453;PMS5003;22478;51.740;-1.314;2023-07-31T03:24:46;16;14;
36453;PMS5003;22478;51.740;-1.314;2023-07-31T03:27:13;9;7;
36453;PMS5003;22478;51.740;-1.314;2023-07-31T03:29:40;11;11;
36453;PMS5003;22478;51.740;-1.314;2023-07-31T03:32:08;10;10;
36453;PMS5003;22478;51.740;-1.314;2023-07-31T03:34:35;7;7;
36453;PMS5003;22478;51.740;-1.314;2023-07-31T03:37:01;6;6;
36453;PMS5003;22478;51.740;-1.314;2023-07-31T03:39:29;7;6;
36453;PMS5003;22478;51.740;-1.314;2023-07-31T03:41:56;9;9;
36453;PMS5003;22478;51.740;-1.314;2023-07-31T03:44:24;15;15;
36453;PMS5003;22478;51.740;-1.314;2023-07-31T03:46:51;8;8;
36453;PMS5003;22478;51.740;-1.314;2023-07-31T03:49:19;6;6;
36453;PMS5003;22478;51.740;-1.314;2023-07-31T03:51:46;6;6;
36453;PMS5003;22478;51.740;-1.314;2023-07-31T03:54:13;9;9;
36453;PMS5003;22478;51.740;-1.314;2023-07-31T03:56:41;6;6;
36453;PMS5003;22478;51.740;-1.314;2023-07-31T03:59:08;6;6;
36453;PMS5003;22478;51.740;-1.314;2023-07-31T04:01:36;15;15;
36453;PMS5003;22478;51.740;-1.314;2023-07-31T04:04:03;23;23;
36453;PMS5003;22478;51.740;-1.314;2023-07-31T04:06:30;20;19;
36453;PMS5003;22478;51.740;-1.314;2023-07-31T04:08:57;20;20;
36453;PMS5003;22478;51.740;-1.314;2023-07-31T04:11:25;20;20;
36453;PMS5003;22478;51.740;-1.314;2023-07-31T04:13:53;30;30;
36453;PMS5003;22478;51.740;-1.314;2023-07-31T04:16:20;32;32;
36453;PMS5003;22478;51.740;-1.314;2023-07-31T04:18:48;15;15;
36453;PMS5003;22478;51.740;-1.314;2023-07-31T04:21:16;25;25;
36453;PMS5003;22478;51.740;-1.314;2023-07-31T04:23:43;24;24;
36453;PMS5003;22478;51.740;-1.314;2023-07-31T04:26:10;24;24;
36453;PMS5003;22478;51.740;-1.314;2023-07-31T04:28:38;26;26;
36453;PMS5003;22478;51.740;-1.314;2023-07-31T04:31:05;25;25;
36453;PMS5003;22478;51.740;-1.314;2023-07-31T04:33:33;15;15;
36453;PMS5003;22478;51.740;-1.314;2023-07-31T04:36:00;14;14;
36453;PMS5003;22478;51.740;-1.314;2023-07-31T04:38:27;29;28;
36453;PMS5003;22478;51.740;-1.314;2023-07-31T04:40:54;46;45;
36453;PMS5003;22478;51.740;-1.314;2023-07-31T04:43:21;22;22;
36453;PMS5003;22478;51.740;-1.314;2023-07-31T04:45:48;27;27;
36453;PMS5003;22478;51.740;-1.314;2023-07-31T04:48:16;33;33;
36453;PMS5003;22478;51.740;-1.314;2023-07-31T04:50:43;50;47;
36453;PMS5003;22478;51.740;-1.314;2023-07-31T04:53:10;47;47;
36453;PMS5003;22478;51.740;-1.314;2023-07-31T04:55:37;37;37;
36453;PMS5003;22478;51.740;-1.314;2023-07-31T04:58:04;29;29;
36453;PMS5003;22478;51.740;-1.314;2023-07-31T05:00:32;22;21;
36453;PMS5003;22478;51.740;-1.314;2023-07-31T05:02:59;22;22;
36453;PMS5003;22478;51.740;-1.314;2023-07-31T05:05:26;18;17;
36453;PMS5003;22478;51.740;-1.314;2023-07-31T05:07:53;24;21;
36453;PMS5003;22478;51.740;-1.314;2023-07-31T05:10:20;22;22;
36453;PMS5003;22478;51.740;-1.314;2023-07-31T05:12:48;12;11;
36453;PMS5003;22478;51.740;-1.314;2023-07-31T05:15:15;9;8;
36453;PMS5003;22478;51.740;-1.314;2023-07-31T05:17:42;22;22;
36453;PMS5003;22478;51.740;-1.314;2023-07-31T05:20:09;17;15;
36453;PMS5003;22478;51.740;-1.314;2023-07-31T05:22:36;6;6;
36453;PMS5003;22478;51.740;-1.314;2023-07-31T05:25:04;9;9;
36453;PMS5003;22478;51.740;-1.314;2023-07-31T05:27:31;19;19;
36453;PMS5003;22478;51.740;-1.314;2023-07-31T05:29:58;13;13;
36453;PMS5003;22478;51.740;-1.314;2023-07-31T05:32:26;10;10;
36453;PMS5003;22478;51.740;-1.314;2023-07-31T05:34:53;17;16;
36453;PMS5003;22478;51.740;-1.314;2023-07-31T05:37:21;13;13;
36453;PMS5003;22478;51.740;-1.314;2023-07-31T05:39:48;24;23;
36453;PMS5003;22478;51.740;-1.314;2023-07-31T05:42:15;11;11;
36453;PMS5003;22478;51.740;-1.314;2023-07-31T05:44:42;15;12;
36453;PMS5003;22478;51.740;-1.314;2023-07-31T05:47:10;12;12;
36453;PMS5003;22478;51.740;-1.314;2023-07-31T05:49:38;12;12;
36453;PMS5003;22478;51.740;-1.314;2023-07-31T05:52:05;16;14;
36453;PMS5003;22478;51.740;-1.314;2023-07-31T05:54:33;16;12;
36453;PMS5003;22478;51.740;-1.314;2023-07-31T05:57:00;6;6;
36453;PMS5003;22478;51.740;-1.314;2023-07-31T05:59:27;8;8;
36453;PMS5003;22478;51.740;-1.314;2023-07-31T06:01:55;4;4;
36453;PMS5003;22478;51.740;-1.314;2023-07-31T06:04:22;6;5;
36453;PMS5003;22478;51.740;-1.314;2023-07-31T06:06:49;13;12;
36453;PMS5003;22478;51.740;-1.314;2023-07-31T06:09:16;6;5;
36453;PMS5003;22478;51.740;-1.314;2023-07-31T06:11:43;10;8;
36453;PMS5003;22478;51.740;-1.314;2023-07-31T06:14:11;4;4;
36453;PMS5003;22478;51.740;-1.314;2023-07-31T06:16:38;7;7;
36453;PMS5003;22478;51.740;-1.314;2023-07-31T06:19:05;5;5;
36453;PMS5003;22478;51.740;-1.314;2023-07-31T06:21:33;9;8;
36453;PMS5003;22478;51.740;-1.314;2023-07-31T06:24:00;4;3;
36453;PMS5003;22478;51.740;-1.314;2023-07-31T06:26:27;4;2;
36453;PMS5003;22478;51.740;-1.314;2023-07-31T06:28:54;5;3;
36453;PMS5003;22478;51.740;-1.314;2023-07-31T06:31:21;4;1;
36453;PMS5003;22478;51.740;-1.314;2023-07-31T06:33:48;5;2;
36453;PMS5003;22478;51.740;-1.314;2023-07-31T06:36:15;5;4;
36453;PMS5003;22478;51.740;-1.314;2023-07-31T06:38:42;2;2;
36453;PMS5003;22478;51.740;-1.314;2023-07-31T06:41:09;1;1;
36453;PMS5003;22478;51.740;-1.314;2023-07-31T06:43:36;5;3;
36453;PMS5003;22478;51.740;-1.314;2023-07-31T06:46:04;2;2;
36453;PMS5003;22478;51.740;-1.314;2023-07-31T06:48:32;3;3;
36453;PMS5003;22478;51.740;-1.314;2023-07-31T06:50:59;4;3;
36453;PMS5003;22478;51.740;-1.314;2023-07-31T06:53:26;4;3;
36453;PMS5003;22478;51.740;-1.314;2023-07-31T06:55:54;5;5;
36453;PMS5003;22478;51.740;-1.314;2023-07-31T06:58:21;7;5;
36453;PMS5003;22478;51.740;-1.314;2023-07-31T07:00:49;7;7;
36453;PMS5003;22478;51.740;-1.314;2023-07-31T07:03:16;5;4;
36453;PMS5003;22478;51.740;-1.314;2023-07-31T07:05:44;9;7;
36453;PMS5003;22478;51.740;-1.314;2023-07-31T07:08:11;3;3;
36453;PMS5003;22478;51.740;-1.314;2023-07-31T07:10:38;3;3;
36453;PMS5003;22478;51.740;-1.314;2023-07-31T07:13:05;3;3;
36453;PMS5003;22478;51.740;-1.314;2023-07-31T07:15:32;4;3;
36453;PMS5003;22478;51.740;-1.314;2023-07-31T07:17:59;4;3;
36453;PMS5003;22478;51.740;-1.314;2023-07-31T07:20:26;5;4;
36453;PMS5003;22478;51.740;-1.314;2023-07-31T07:22:53;2;2;
36453;PMS5003;22478;51.740;-1.314;2023-07-31T07:25:20;3;3;
36453;PMS5003;22478;51.740;-1.314;2023-07-31T07:27:48;4;2;
36453;PMS5003;22478;51.740;-1.314;2023-07-31T07:30:14;3;3;
36453;PMS5003;22478;51.740;-1.314;2023-07-31T07:32:41;3;3;
36453;PMS5003;22478;51.740;-1.314;2023-07-31T07:35:08;3;2;
36453;PMS5003;22478;51.740;-1.314;2023-07-31T07:37:35;3;3;
36453;PMS5003;22478;51.740;-1.314;2023-07-31T07:40:02;5;3;
36453;PMS5003;22478;51.740;-1.314;2023-07-31T07:42:30;2;2;
36453;PMS5003;22478;51.740;-1.314;2023-07-31T07:44:57;4;3;
36453;PMS5003;22478;51.740;-1.314;2023-07-31T07:47:24;3;3;
36453;PMS5003;22478;51.740;-1.314;2023-07-31T07:49:51;4;3;
36453;PMS5003;22478;51.740;-1.314;2023-07-31T07:52:19;7;3;
36453;PMS5003;22478;51.740;-1.314;2023-07-31T07:54:46;2;2;
36453;PMS5003;22478;51.740;-1.314;2023-07-31T07:57:13;4;2;
36453;PMS5003;22478;51.740;-1.314;2023-07-31T07:59:40;7;3;
36453;PMS5003;22478;51.740;-1.314;2023-07-31T08:02:07;3;1;
36453;PMS5003;22478;51.740;-1.314;2023-07-31T08:04:34;4;3;
36453;PMS5003;22478;51.740;-1.314;2023-07-31T08:07:01;3;1;
36453;PMS5003;22478;51.740;-1.314;2023-07-31T08:09:28;2;2;
36453;PMS5003;22478;51.740;-1.314;2023-07-31T08:11:55;5;3;
36453;PMS5003;22478;51.740;-1.314;2023-07-31T08:14:22;1;1;
36453;PMS5003;22478;51.740;-1.314;2023-07-31T08:16:49;1;1;
36453;PMS5003;22478;51.740;-1.314;2023-07-31T08:19:16;6;4;
36453;PMS5003;22478;51.740;-1.314;2023-07-31T08:21:43;3;1;
36453;PMS5003;22478;51.740;-1.314;2023-07-31T08:24:10;4;2;
36453;PMS5003;22478;51.740;-1.314;2023-07-31T08:26:37;2;2;
36453;PMS5003;22478;51.740;-1.314;2023-07-31T08:29:04;5;4;
36453;PMS5003;22478;51.740;-1.314;2023-07-31T08:31:31;4;2;
36453;PMS5003;22478;51.740;-1.314;2023-07-31T08:33:58;2;2;
36453;PMS5003;22478;51.740;-1.314;2023-07-31T08:36:25;4;2;
36453;PMS5003;22478;51.740;-1.314;2023-07-31T08:38:52;2;2;
36453;PMS5003;22478;51.740;-1.314;2023-07-31T08:41:19;2;2;
36453;PMS5003;22478;51.740;-1.314;2023-07-31T08:43:46;4;3;
36453;PMS5003;22478;51.740;-1.314;2023-07-31T08:46:14;3;3;
36453;PMS5003;22478;51.740;-1.314;2023-07-31T08:48:42;2;2;
36453;PMS5003;22478;51.740;-1.314;2023-07-31T08:51:09;2;2;
36453;PMS5003;22478;51.740;-1.314;2023-07-31T08:53:37;2;2;
36453;PMS5003;22478;51.740;-1.314;2023-07-31T08:56:04;3;3;
36453;PMS5003;22478;51.740;-1.314;2023-07-31T08:58:33;3;3;
36453;PMS5003;22478;51.740;-1.314;2023-07-31T09:01:03;3;2;
36453;PMS5003;22478;51.740;-1.314;2023-07-31T09:03:32;2;2;
36453;PMS5003;22478;51.740;-1.314;2023-07-31T09:06:02;2;2;
36453;PMS5003;22478;51.740;-1.314;2023-07-31T09:08:30;1;1;
36453;PMS5003;22478;51.740;-1.314;2023-07-31T09:10:59;3;1;
36453;PMS5003;22478;51.740;-1.314;2023-07-31T09:13:27;4;2;
36453;PMS5003;22478;51.740;-1.314;2023-07-31T09:15:56;3;3;
36453;PMS5003;22478;51.740;-1.314;2023-07-31T09:18:24;4;2;
36453;PMS5003;22478;51.740;-1.314;2023-07-31T09:21:06;2;2;
36453;PMS5003;22478;51.740;-1.314;2023-07-31T09:23:41;3;3;
36453;PMS5003;22478;51.740;-1.314;2023-07-31T09:26:09;3;1;
36453;PMS5003;22478;51.740;-1.314;2023-07-31T09:28:37;4;3;
36453;PMS5003;22478;51.740;-1.314;2023-07-31T09:31:04;4;3;
36453;PMS5003;22478;51.740;-1.314;2023-07-31T09:33:32;2;1;
36453;PMS5003;22478;51.740;-1.314;2023-07-31T09:35:59;5;3;
36453;PMS5003;22478;51.740;-1.314;2023-07-31T09:38:26;6;3;
36453;PMS5003;22478;51.740;-1.314;2023-07-31T09:40:53;3;1;
36453;PMS5003;22478;51.740;-1.314;2023-07-31T09:43:21;4;3;
36453;PMS5003;22478;51.740;-1.314;2023-07-31T09:45:52;2;1;
36453;PMS5003;22478;51.740;-1.314;2023-07-31T09:48:23;2;2;
36453;PMS5003;22478;51.740;-1.314;2023-07-31T09:50:50;5;4;
36453;PMS5003;22478;51.740;-1.314;2023-07-31T09:53:17;2;2;
36453;PMS5003;22478;51.740;-1.314;2023-07-31T09:55:44;2;2;
36453;PMS5003;22478;51.740;-1.314;2023-07-31T09:58:11;2;2;
36453;PMS5003;22478;51.740;-1.314;2023-07-31T10:00:39;1;1;
36453;PMS5003;22478;51.740;-1.314;2023-07-31T10:03:07;2;2;
36453;PMS5003;22478;51.740;-1.314;2023-07-31T10:05:36;4;3;
36453;PMS5003;22478;51.740;-1.314;2023-07-31T10:08:07;3;2;
36453;PMS5003;22478;51.740;-1.314;2023-07-31T10:10:36;2;2;
36453;PMS5003;22478;51.740;-1.314;2023-07-31T10:13:07;2;2;
36453;PMS5003;22478;51.740;-1.314;2023-07-31T10:15:36;5;2;
36453;PMS5003;22478;51.740;-1.314;2023-07-31T10:18:03;2;1;
36453;PMS5003;22478;51.740;-1.314;2023-07-31T10:20:32;4;3;
36453;PMS5003;22478;51.740;-1.314;2023-07-31T10:23:00;1;1;
36453;PMS5003;22478;51.740;-1.314;2023-07-31T10:25:29;3;2;
36453;PMS5003;22478;51.740;-1.314;2023-07-31T10:27:58;4;4;
36453;PMS5003;22478;51.740;-1.314;2023-07-31T10:30:26;2;2;
36453;PMS5003;22478;51.740;-1.314;2023-07-31T10:32:56;2;2;
36453;PMS5003;22478;51.740;-1.314;2023-07-31T10:35:25;8;4;
36453;PMS5003;22478;51.740;-1.314;2023-07-31T10:37:52;4;3;
36453;PMS5003;22478;51.740;-1.314;2023-07-31T10:40:23;5;3;
36453;PMS5003;22478;51.740;-1.314;2023-07-31T10:42:52;5;5;
36453;PMS5003;22478;51.740;-1.314;2023-07-31T10:45:24;4;3;
36453;PMS5003;22478;51.740;-1.314;2023-07-31T10:47:57;5;4;
36453;PMS5003;22478;51.740;-1.314;2023-07-31T10:50:25;7;5;
36453;PMS5003;22478;51.740;-1.314;2023-07-31T10:52:53;8;5;
36453;PMS5003;22478;51.740;-1.314;2023-07-31T10:55:24;5;5;
36453;PMS5003;22478;51.740;-1.314;2023-07-31T10:57:54;5;4;
36453;PMS5003;22478;51.740;-1.314;2023-07-31T11:00:24;6;5;
36453;PMS5003;22478;51.740;-1.314;2023-07-31T11:02:57;5;5;
36453;PMS5003;22478;51.740;-1.314;2023-07-31T11:05:44;5;5;
36453;PMS5003;22478;51.740;-1.314;2023-07-31T11:08:17;7;5;
36453;PMS5003;22478;51.740;-1.314;2023-07-31T11:10:46;6;4;
36453;PMS5003;22478;51.740;-1.314;2023-07-31T11:13:14;6;4;
36453;PMS5003;22478;51.740;-1.314;2023-07-31T11:15:42;6;3;
36453;PMS5003;22478;51.740;-1.314;2023-07-31T11:18:09;6;6;
36453;PMS5003;22478;51.740;-1.314;2023-07-31T11:20:36;6;6;
36453;PMS5003;22478;51.740;-1.314;2023-07-31T11:23:05;11;6;
36453;PMS5003;22478;51.740;-1.314;2023-07-31T11:25:34;5;5;
36453;PMS5003;22478;51.740;-1.314;2023-07-31T11:28:03;6;6;
36453;PMS5003;22478;51.740;-1.314;2023-07-31T11:30:30;9;6;
36453;PMS5003;22478;51.740;-1.314;2023-07-31T11:33:01;9;7;
36453;PMS5003;22478;51.740;-1.314;2023-07-31T11:35:30;6;6;
36453;PMS5003;22478;51.740;-1.314;2023-07-31T11:37:58;5;5;
36453;PMS5003;22478;51.740;-1.314;2023-07-31T11:40:26;5;5;
36453;PMS5003;22478;51.740;-1.314;2023-07-31T11:42:53;8;8;
36453;PMS5003;22478;51.740;-1.314;2023-07-31T11:45:24;9;6;
36453;PMS5003;22478;51.740;-1.314;2023-07-31T11:47:53;10;7;
36453;PMS5003;22478;51.740;-1.314;2023-07-31T11:50:21;7;7;
36453;PMS5003;22478;51.740;-1.314;2023-07-31T11:52:50;11;5;
36453;PMS5003;22478;51.740;-1.314;2023-07-31T11:55:21;10;5;
36453;PMS5003;22478;51.740;-1.314;2023-07-31T11:57:50;11;7;
36453;PMS5003;22478;51.740;-1.314;2023-07-31T12:00:23;8;6;
36453;PMS5003;22478;51.740;-1.314;2023-07-31T12:02:51;7;5;
36453;PMS5003;22478;51.740;-1.314;2023-07-31T12:05:19;7;6;
36453;PMS5003;22478;51.740;-1.314;2023-07-31T12:07:49;7;4;
36453;PMS5003;22478;51.740;-1.314;2023-07-31T12:10:25;8;6;
36453;PMS5003;22478;51.740;-1.314;2023-07-31T12:12:59;8;6;
36453;PMS5003;22478;51.740;-1.314;2023-07-31T12:15:29;6;6;
36453;PMS5003;22478;51.740;-1.314;2023-07-31T12:17:59;6;6;
36453;PMS5003;22478;51.740;-1.314;2023-07-31T12:20:29;8;6;
36453;PMS5003;22478;51.740;-1.314;2023-07-31T12:22:56;8;7;
36453;PMS5003;22478;51.740;-1.314;2023-07-31T12:25:28;5;5;
36453;PMS5003;22478;51.740;-1.314;2023-07-31T12:27:56;5;5;
36453;PMS5003;22478;51.740;-1.314;2023-07-31T12:30:29;7;5;
36453;PMS5003;22478;51.740;-1.314;2023-07-31T12:33:02;7;6;
36453;PMS5003;22478;51.740;-1.314;2023-07-31T12:35:34;6;4;
36453;PMS5003;22478;51.740;-1.314;2023-07-31T12:38:03;6;6;
36453;PMS5003;22478;51.740;-1.314;2023-07-31T12:40:31;9;4;
36453;PMS5003;22478;51.740;-1.314;2023-07-31T12:43:00;6;5;
36453;PMS5003;22478;51.740;-1.314;2023-07-31T12:45:28;10;7;
36453;PMS5003;22478;51.740;-1.314;2023-07-31T12:47:56;4;3;
36453;PMS5003;22478;51.740;-1.314;2023-07-31T12:50:25;8;5;
36453;PMS5003;22478;51.740;-1.314;2023-07-31T12:52:53;7;5;
36453;PMS5003;22478;51.740;-1.314;2023-07-31T12:55:21;8;6;
36453;PMS5003;22478;51.740;-1.314;2023-07-31T12:57:48;6;5;
36453;PMS5003;22478;51.740;-1.314;2023-07-31T13:00:16;7;7;
36453;PMS5003;22478;51.740;-1.314;2023-07-31T13:02:44;8;8;
36453;PMS5003;22478;51.740;-1.314;2023-07-31T13:05:11;4;4;
36453;PMS5003;22478;51.740;-1.314;2023-07-31T13:07:37;6;4;
36453;PMS5003;22478;51.740;-1.314;2023-07-31T13:10:06;8;7;
36453;PMS5003;22478;51.740;-1.314;2023-07-31T13:12:34;5;5;
36453;PMS5003;22478;51.740;-1.314;2023-07-31T13:15:01;6;6;
36453;PMS5003;22478;51.740;-1.314;2023-07-31T13:17:28;9;5;
36453;PMS5003;22478;51.740;-1.314;2023-07-31T13:19:55;8;5;
36453;PMS5003;22478;51.740;-1.314;2023-07-31T13:22:22;9;5;
36453;PMS5003;22478;51.740;-1.314;2023-07-31T13:24:49;13;6;
36453;PMS5003;22478;51.740;-1.314;2023-07-31T13:27:16;5;4;
36453;PMS5003;22478;51.740;-1.314;2023-07-31T13:29:43;6;6;
36453;PMS5003;22478;51.740;-1.314;2023-07-31T13:32:10;5;4;
36453;PMS5003;22478;51.740;-1.314;2023-07-31T13:34:38;10;8;
36453;PMS5003;22478;51.740;-1.314;2023-07-31T13:37:05;8;7;
36453;PMS5003;22478;51.740;-1.314;2023-07-31T13:39:32;5;4;
36453;PMS5003;22478;51.740;-1.314;2023-07-31T13:41:59;5;5;
36453;PMS5003;22478;51.740;-1.314;2023-07-31T13:44:26;7;4;
36453;PMS5003;22478;51.740;-1.314;2023-07-31T13:46:53;7;4;
36453;PMS5003;22478;51.740;-1.314;2023-07-31T13:49:22;11;7;
36453;PMS5003;22478;51.740;-1.314;2023-07-31T13:51:49;7;5;
36453;PMS5003;22478;51.740;-1.314;2023-07-31T13:54:16;8;7;
36453;PMS5003;22478;51.740;-1.314;2023-07-31T13:56:43;7;4;
36453;PMS5003;22478;51.740;-1.314;2023-07-31T13:59:10;8;7;
36453;PMS5003;22478;51.740;-1.314;2023-07-31T14:01:37;6;6;
36453;PMS5003;22478;51.740;-1.314;2023-07-31T14:04:04;10;5;
36453;PMS5003;22478;51.740;-1.314;2023-07-31T14:06:31;8;6;
36453;PMS5003;22478;51.740;-1.314;2023-07-31T14:08:58;8;8;
36453;PMS5003;22478;51.740;-1.314;2023-07-31T14:11:25;9;7;
36453;PMS5003;22478;51.740;-1.314;2023-07-31T14:13:53;8;5;
36453;PMS5003;22478;51.740;-1.314;2023-07-31T14:16:20;6;5;
36453;PMS5003;22478;51.740;-1.314;2023-07-31T14:18:47;9;8;
36453;PMS5003;22478;51.740;-1.314;2023-07-31T14:21:14;6;5;
36453;PMS5003;22478;51.740;-1.314;2023-07-31T14:23:41;8;6;
36453;PMS5003;22478;51.740;-1.314;2023-07-31T14:26:08;7;7;
36453;PMS5003;22478;51.740;-1.314;2023-07-31T14:28:34;7;7;
36453;PMS5003;22478;51.740;-1.314;2023-07-31T14:31:02;7;7;
36453;PMS5003;22478;51.740;-1.314;2023-07-31T14:33:29;9;5;
36453;PMS5003;22478;51.740;-1.314;2023-07-31T14:35:57;7;7;
36453;PMS5003;22478;51.740;-1.314;2023-07-31T14:38:24;7;5;
36453;PMS5003;22478;51.740;-1.314;2023-07-31T14:40:51;8;8;
36453;PMS5003;22478;51.740;-1.314;2023-07-31T14:43:18;6;4;
36453;PMS5003;22478;51.740;-1.314;2023-07-31T14:45:45;10;7;
36453;PMS5003;22478;51.740;-1.314;2023-07-31T14:48:12;7;7;
36453;PMS5003;22478;51.740;-1.314;2023-07-31T14:50:39;8;6;
36453;PMS5003;22478;51.740;-1.314;2023-07-31T14:53:06;8;8;
36453;PMS5003;22478;51.740;-1.314;2023-07-31T14:55:34;7;6;
36453;PMS5003;22478;51.740;-1.314;2023-07-31T14:58:01;8;6;
36453;PMS5003;22478;51.740;-1.314;2023-07-31T15:00:29;6;6;
36453;PMS5003;22478;51.740;-1.314;2023-07-31T15:02:56;9;6;
36453;PMS5003;22478;51.740;-1.314;2023-07-31T15:05:23;6;6;
36453;PMS5003;22478;51.740;-1.314;2023-07-31T15:07:50;7;7;
36453;PMS5003;22478;51.740;-1.314;2023-07-31T15:10:17;15;9;
36453;PMS5003;22478;51.740;-1.314;2023-07-31T15:12:44;6;6;
36453;PMS5003;22478;51.740;-1.314;2023-07-31T15:15:11;6;6;
36453;PMS5003;22478;51.740;-1.314;2023-07-31T15:17:38;6;6;
36453;PMS5003;22478;51.740;-1.314;2023-07-31T15:20:05;7;4;
36453;PMS5003;22478;51.740;-1.314;2023-07-31T15:22:33;4;3;
36453;PMS5003;22478;51.740;-1.314;2023-07-31T15:25:00;6;6;
36453;PMS5003;22478;51.740;-1.314;2023-07-31T15:27:27;6;5;
36453;PMS5003;22478;51.740;-1.314;2023-07-31T15:29:55;11;7;
36453;PMS5003;22478;51.740;-1.314;2023-07-31T15:32:22;5;5;
36453;PMS5003;22478;51.740;-1.314;2023-07-31T15:34:50;4;4;
36453;PMS5003;22478;51.740;-1.314;2023-07-31T15:37:17;8;6;
36453;PMS5003;22478;51.740;-1.314;2023-07-31T15:39:44;4;4;
36453;PMS5003;22478;51.740;-1.314;2023-07-31T15:42:11;6;6;
36453;PMS5003;22478;51.740;-1.314;2023-07-31T15:44:38;5;4;
36453;PMS5003;22478;51.740;-1.314;2023-07-31T15:47:05;4;4;
36453;PMS5003;22478;51.740;-1.314;2023-07-31T15:49:32;5;5;
36453;PMS5003;22478;51.740;-1.314;2023-07-31T15:52:00;8;4;
36453;PMS5003;22478;51.740;-1.314;2023-07-31T15:54:27;3;3;
36453;PMS5003;22478;51.740;-1.314;2023-07-31T15:56:54;4;4;
36453;PMS5003;22478;51.740;-1.314;2023-07-31T15:59:21;5;5;
36453;PMS5003;22478;51.740;-1.314;2023-07-31T16:01:48;6;5;
36453;PMS5003;22478;51.740;-1.314;2023-07-31T16:04:17;6;5;
36453;PMS5003;22478;51.740;-1.314;2023-07-31T16:06:44;7;4;
36453;PMS5003;22478;51.740;-1.314;2023-07-31T16:09:11;8;5;
36453;PMS5003;22478;51.740;-1.314;2023-07-31T16:11:38;8;5;
36453;PMS5003;22478;51.740;-1.314;2023-07-31T16:14:05;5;5;
36453;PMS5003;22478;51.740;-1.314;2023-07-31T16:16:32;6;5;
36453;PMS5003;22478;51.740;-1.314;2023-07-31T16:18:58;5;5;
36453;PMS5003;22478;51.740;-1.314;2023-07-31T16:21:25;10;5;
36453;PMS5003;22478;51.740;-1.314;2023-07-31T16:23:52;5;4;
36453;PMS5003;22478;51.740;-1.314;2023-07-31T16:26:19;4;3;
36453;PMS5003;22478;51.740;-1.314;2023-07-31T16:28:46;3;3;